GCLAGMMH

Guest
Details From GCLA - La Palma
To GMMH - DAKHLA
Flight Number -
Tags generated
Created
Modified
Stats Distance 312 nm / 578 km
Max Altitude 35,000 ft / 10,668 m
Waypoints 5
Social Downloads 2
Likes 0
Share VATSIM

Download

Looking for another format? Having issues loading an existing format? Contact us
Advertisement - Login to hide

Notes

Basic altitude profile: - Ascent Rate: 2500ft/min - Ascent Speed: 250kts - Cruise Altitude: 35000ft - Cruise Speed: 420kts - Descent Rate: 1500ft/min - Descent Speed: 250kts Options: - Use NATs: yes - Use PACOTS: yes - Use low airways: yes - Use high airways: yes

Route

GCLA GOMER VIDRI BIPET GMMH

ID Type Via Altitude Latitude Longitude Leg Dist Tot Dist Heading (true) Name
O GCLA APT - 0 ft / 0 m 28.62648˚ -17.75561˚ - 0 nm - La Palma
GOMER FIX - 15,600 ft / 4,755 m 28.00000˚ -17.33333˚ 43 nm 43 nm 149° / 149° -
VIDRI FIX - 35,000 ft / 10,668 m 26.89458˚ -17.03990˚ 68 nm 111 nm 167° / 167° -
BIPET FIX - 17,200 ft / 5,243 m 25.00000˚ -16.35880˚ 119 nm 231 nm 162° / 162° -
O GMMH APT - 0 ft / 0 m 23.71829˚ -15.93199˚ 80 nm 311 nm 163° / 163° DAKHLA

Altitude Profile

Advertisement - Login to hide

Weather


0- 5 10 15 20 25 30 35+ Temperature / ° C

Clouds and Precipitation
Forecast for 2017-12-16 18:00 UTC. Updated an hour ago

Ground ~20,000 ft ~40,000 ft Winds

GCLA

Details ICAO GCLA (SPC)
Name La Palma
Region Canary Islands
Timezone Atlantic/Canary (UTC+0.0)
Stats Elevation 107 ft / 33 m (AMSL)
Location 28.626480° -17.755613°
Runways 1
Magnetic Variation 5.521° W

METAR

GCLA 161830Z 02015KT 340V050 9999 SCT030 20/17 Q1022

Decode

TAF

TAF AMD GCLA 161435Z 1615/1715 01014KT 9999 SCT035 TX20/1714Z TN16/1706Z PROB40 TEMPO 1615/1715 4900 RA

Decode

Departure Runways

ID Width Length Bearing (true) Bearing (mag) Surface Threshold Offset Overrun Length
01 148 ft / 45 m 7,240 ft / 2,207 m 359.02° 4.54° Asphalt 0 ft / 0 m 279 ft / 85 m
19 148 ft / 45 m 7,240 ft / 2,207 m 179.02° 184.54° Asphalt 0 ft / 0 m 236 ft / 72 m

GMMH

Details ICAO GMMH (VIL)
Name DAKHLA
Region Morocco
Timezone Africa/El_Aaiun (UTC+0.0)
Stats Elevation 36 ft / 11 m (AMSL)
Location 23.718294° -15.931993°
Runways 1
Magnetic Variation 5.266° W

METAR

GMMH 161800Z 01014KT CAVOK 19/16 Q1021 NOSIG

Decode

TAF

TAF GMMH 161700Z 1618/1724 01016KT CAVOK PROB30 1700/1706 4000 BR BKN008 TEMPO 1702/1712 BKN010

Decode

Destination Runways

ID Width Length Bearing (true) Bearing (mag) Surface Threshold Offset Overrun Length
03 148 ft / 45 m 9,886 ft / 3,013 m 22.66° 27.93° Asphalt 0 ft / 0 m 323 ft / 98 m
21 148 ft / 45 m 9,886 ft / 3,013 m 202.67° 207.94° Asphalt 0 ft / 0 m 377 ft / 115 m